Timeline UpdatesTrip UpdatesNews PostsPvt PostsTravel TipsAdmin PostsConv PostsFollowed PostsChat RequestsBlog PostsPNR Posts

Disclaimer
Search
 
 
Thu Jul 31, 2014 19:02:26 ISTHomeTrainsΣChainsAtlasPNRForumGalleryNewsFAQTripsMembersLoginFeedback
No Recent News for this Train
Other Trains in the News **new
Latest...
Renumbered as 22647 and arrival time at TVC changed to 17.15 wef 16/7/14
Mon Jun 30, 2014 (11:17AM)
⇐ Return Journey: Train# 22648

16327⇒22647/Korba - Trivandram Central SF Express

Jul 14 (9:21PM)
Change Departure Station:
Change Arrival Station:
Post a Train Travel TipPost a Train Travel Tip **new
Post a Comment/Question/Picture/VideoPost a Comment/Question/Picture/Video
Pantry/Catering
✓ Pantry Car Avbl
✓ Catering Avbl
Loco/Rake Reversals
SRR/Shoranur Junction (7); MAS/Chennai Central (12);
RSA - Rake Sharing
22641/22642)<-->(22645/22646)<-->(22647/22648) <--> (12643/2644) ; Entry# 1149704
Rake/Coach Composition
Loco ,SLR, UR, UR, B2, B1,A1, S11, S10, S9-S8, S7,PC, S6, S5, S4, S3, S2, S1, UR, UR, SLR; SLR-2;UR-4;SL-11;3AC-2;2AC-1;
Loco
#WAP 4 ED Shed ,Author-Avinash Raj Trip #1438
News    PNR    Forum    Time-Table    Availability    Fare Chart    Map    Arr/Dep History    Trips    Gallery    ΣChains    X/O    Timeline    
Travel Time: 0h 50m    0 halts    Distance: 50 km    Avg Speed: 60 km/hr
Type: SuperFast
Zone: SR/Southern
Departs @ 07:00
Platform# 1
 M   F 
Tiruppur/TUP 
Arrives @ 07:50
Platform# 2
 M   F 
Coimbatore Main Junction/CBE 

0 halts. 7 intermediate Stations between Tiruppur and Coimbatore Main Junction

Show ALL intermediate Stations  Show Old Time-Table

#CodeStation NameX/OArrivesAvgDepartsAvgHaltPFDay#KmSpeedElevZoneAddress
1KRBAKorba (3)  -19:40-21-2037.960293mSECRKorba, Chhattisgarh
2CPHChampa Junction (3)X  20:17-20:19-2m--1-2001.050264mSECRNational Highway 200 (07819-245767), Chhattisgarh
3NIANaila  20:32-20:33-1m--1-1990.169273mSECRJanjgir, Chhattisgarh
4AKTAkaltara (4)  20:46-20:47-1m--1-1975.243284mSECRDist. Janjgir Champa, Chhattisgarh
5BSPBilaspur Junction (8)X  21:25-21:35-10m31-1947.975271mSECRBilaspur, Chhattisgarh
6BYTBhatapara (4)  22:12-22:13-1m--1-1901.868270mSECRBanjari Road, Chhattisgarh
7RRaipur Junction (6)O  23:10-23:15-5m21-1837.540297mSECRRaipur, Chhattisgarh
8DURGDurg Junction (6)  00:10-00:30-20m12-1800.687299mSECRPh: 91-788-2322059, Chhattisgarh
9RJNRaj Nandgaon (3)  00:51-00:53-2m22-1770.182313mSECRRajnandgaon, Chhattisgarh
10DGGDongargarh (2)  01:16-01:17-1m--2-1738.667353mSECRDongargarh, Chhattisgarh
11GGondia Junction (7)  02:23-02:25-2m--2-1665.393316mSECRGondia 441601, Maharashtra
12TMRTumsar Road (3)X  02:57-02:58-1m--2-1615.767267mSECRBhandara, Maharashtra
13BRDBhandara Road (2)  03:14-03:15-1m--2-1597.747266mSECRState Highway 252, Maharashtra
14NGPNagpur Junction (8)  04:35-04:45-10m--2-1535.478314mCRNagpur 440001, Maharashtra
15SEGMSewagram Junction (5)  05:44-05:45-1m--2-1459.269279mCRWardha, Maharashtra
16HGTHinganghat (3)X  06:14-06:15-1m--2-1426.178228mCRHinganghat, Maharashtra
17CDChandrapur Maharashtra (3)O  07:21-07:22-1m--2-1340.719194mCRChandrapur 442401, Maharashtra
18BPQBalharshah Junction (5)XO  08:05-08:45-40m--2-1326.9105188mCRBallarpur. Ph : 07172 - 240341, Maharashtra
19SKZRSirpur Kaghaznagar (3)X  09:25-09:26-1m22-1257.162181mSCRAdilabad Dist., Telangana
20BPABellampalli (3)  10:03-10:04-1m22-1218.779205mSCRTel:.08735 223298, Telangana
21MCIManchiryal (3)  10:19-10:20-1m22-1198.892159mSCRAdilabad Dist., Telangana
22RDMRamagundam (3)X  10:29-10:30-1m22-1185.165170mSCRKarimnagar Dist. Ph : 08728 - 255237, Telangana
23WLWarangal (3)  12:03-12:05-2m12-1083.971271mSCRWarangal., Telangana
24KMTKhammam (2)X  13:36-13:37-1m12-976.345118mSCRKhammam 507001, Telangana
25BZAVijayawada Junction (10)X  15:50-16:05-15m52-876.06524mSCRVijayawada 520001, Andhra Pradesh
26TELTenali Junction (5)  16:34-16:35-1m32-844.78016mSCRTel: 08644-227834, Andhra Pradesh
27CLXChirala (4)  17:18-17:19-1m--2-787.1678mSCRChirala, Andhra Pradesh
28OGLOngole (3)  18:03-18:04-1m32-737.79312mSCROngole, Andhra Pradesh
29NLRNellore (4)X  19:19-19:20-1m32-620.92521mSCRNellore, Andhra Pradesh
30GDRGudur Junction (3)  20:53-20:55-2m12-582.55719mSCRGudur, Andhra Pradesh
31MASChennai Central (12)X23:20-23:45-25m62-445.1659mSRChennai 600003, Tamil Nadu
32KPDKatpadi Junction (5)X  01:45-01:50-5m13-315.759213mSRVellore 632007, Tamil Nadu
33JTJJolarpettai Junction (5)  03:15-03:20-5m--3-231.885405mSRJolarpettai, Tamil Nadu
34SASalem Junction (6)X  04:45-04:50-5m--3-111.649283mSRSalem, Tamil Nadu
35EDErode Junction (4)  06:05-06:15-10m23-50.270175mSRErode ph.no: 0424-2256111, Tamil Nadu
36TUP»Tiruppur (2)»  06:58-07:00-2m130.061305mSRTiruppur. Ph:0421-2200450, Tamil Nadu
37CBE•Coimbatore Main Junction (6)•X  07:50-07:55-5m2350.547416mSRCoimbatore 641001, Tamil Nadu
38PGTPalakkad Junction (4)XO  09:05-09:10-5m--3105.86684mSRPalghat Tel: 0491 2555231, Kerala
39OTPOttappalam (2)X  09:39-09:40-1m--3137.51930mSROttapalam, Kerala
40SRRShoranur Junction (7)X10:20-10:30-10m--3150.45226mSRShoranur ph.no 0466-2222913, Kerala
41WKIWadakkanchery (2)X  10:49-10:50-1m13166.93640mSRWadackanchery, Kerala
42TCRThrissur (4)O  11:17-11:20-3m13183.3536mSRThrissur Tel: 0487 2423150, Kerala
43IJKIrinjalakkuda (2)  11:47-11:48-1m--3207.16418mSRKalletumkara, Kerala
44CKIChalakkudy (3)X  11:54-11:55-1m13213.5659mSRPh: 0480- 2701368, Kerala
45AFKAngamaly for Kalady (3)  12:09-12:10-1m--3228.75016mSRPhone: 0484-2452340, Kerala
46AWYAluva (3)  12:21-12:23-2m--3237.93212mSRPh: 0484-2624141, Kerala
47ERNErnakulam Town (North) (2)X  12:55-13:00-5m23254.8319mSRTel: 0484 2395198, Kerala
48TRTRThrippunithura (2)X  13:19-13:20-1m--3264.4605mSRErnakulam, Kerala
49KTYMKottayam (3)X  14:10-14:15-5m--3314.75315mSRTel: 0481 2563535, Kerala
50TRVLTiruvalla (2)X  14:44-14:45-1m--3340.46027mSRPh: 0469-2601314, Kerala
51CNGRChengannur (3)  14:54-14:55-1m13349.5546mSRPh: 0479-2452340, Kerala
52MVLKMavelikara (3)X  15:09-15:10-1m13362.03513mSRMavelikkara Ph: 0479-2302249, Kerala
53KYJKayamkulam Junction (5)  15:23-15:25-2m--3369.75411mSRAlappuzha Ph;0479-2442042, Kerala
54QLNKollam Junction (6)  16:10-16:15-5m13410.55216mSRKollam 0474-2746194, Kerala
55TVCTrivandrum Central (5)  17:30--13475.1-12mSRThiruvananthapuram 695001, Kerala
Scroll to Top
Scroll to Bottom